Time;durP1;ratioP1;P1;durP2;ratioP2;P2;SDS_P1;SDS_P2;PMS_P1;PMS_P2;Temp;Humidity;BMP_temperature;BMP_pressure;BME280_temperature;BME280_humidity;BME280_pressure;Samples;Min_cycle;Max_cycle;Signal;HPM_P1;HPM_P2
2023/06/22 00:00:11;;;;;;;24.70;13.27;;;;;;;;;;6254802;28;20701;-60
2023/06/22 00:03:32;;;;;;;23.50;13.05;;;;;;;;;;6252444;28;20475;-60
2023/06/22 00:06:32;;;;;;;28.83;13.13;;;;;;;;;;6253241;28;20054;-60
2023/06/22 00:09:33;;;;;;;28.27;13.50;;;;;;;;;;6256869;28;20187;-59
2023/06/22 00:12:33;;;;;;;25.43;13.20;;;;;;;;;;6254944;28;20507;-59
2023/06/22 00:15:35;;;;;;;26.10;13.10;;;;;;;;;;6254480;28;20489;-59
2023/06/22 00:18:35;;;;;;;28.17;13.10;;;;;;;;;;6259289;28;20083;-60
2023/06/22 00:21:37;;;;;;;23.87;13.00;;;;;;;;;;6258193;28;20060;-58
2023/06/22 00:24:37;;;;;;;29.15;12.65;;;;;;;;;;6260712;28;20061;-60
2023/06/22 00:27:38;;;;;;;26.07;12.40;;;;;;;;;;6258046;28;20128;-60
2023/06/22 00:30:39;;;;;;;24.87;12.33;;;;;;;;;;6255797;28;20049;-59
2023/06/22 00:33:39;;;;;;;25.07;11.97;;;;;;;;;;6252260;28;20131;-60
2023/06/22 00:36:40;;;;;;;23.80;11.30;;;;;;;;;;6252722;28;20048;-59
2023/06/22 00:39:42;;;;;;;25.70;11.63;;;;;;;;;;6254215;28;20041;-58
2023/06/22 00:42:43;;;;;;;;;;;;;;;;;;6253759;28;20044;-57
2023/06/22 00:45:43;;;;;;;25.98;11.88;;;;;;;;;;6251888;28;19925;-57
2023/06/22 00:48:44;;;;;;;26.53;10.63;;;;;;;;;;6253973;28;20512;-59
2023/06/22 00:51:45;;;;;;;22.42;10.27;;;;;;;;;;6261002;28;20037;-60
2023/06/22 00:54:51;;;;;;;22.00;10.13;;;;;;;;;;6254589;28;20049;-60
2023/06/22 01:01:08;;;;;;;24.23;10.32;;;;;;;;;;6103663;23;20059;-61
2023/06/22 01:04:09;;;;;;;26.40;10.50;;;;;;;;;;6141361;28;20047;-60
2023/06/22 01:07:38;;;;;;;21.63;9.83;;;;;;;;;;6140028;28;20510;-58
2023/06/22 01:10:45;;;;;;;23.00;10.60;;;;;;;;;;6139996;28;20051;-61
2023/06/22 01:14:06;;;;;;;24.92;10.48;;;;;;;;;;6143243;28;20061;-60
2023/06/22 01:17:09;;;;;;;26.90;10.73;;;;;;;;;;6145567;28;20721;-60
2023/06/22 01:20:12;;;;;;;24.25;10.60;;;;;;;;;;6142070;28;20047;-60
2023/06/22 01:23:33;;;;;;;27.50;10.90;;;;;;;;;;6140652;28;20043;-60
2023/06/22 01:27:21;;;;;;;28.27;10.60;;;;;;;;;;6145226;28;20517;-59
2023/06/22 01:30:26;;;;;;;26.02;10.75;;;;;;;;;;6102395;29;20385;-60
2023/06/22 01:33:27;;;;;;;22.88;9.98;;;;;;;;;;6101704;29;20040;-61
2023/06/22 01:36:30;;;;;;;24.55;11.02;;;;;;;;;;6141228;28;20043;-60
2023/06/22 01:39:32;;;;;;;23.77;10.13;;;;;;;;;;6141217;28;20133;-58
2023/06/22 01:42:33;;;;;;;26.13;10.38;;;;;;;;;;6138345;28;20047;-61
2023/06/22 01:45:34;;;;;;;26.50;10.63;;;;;;;;;;6138671;28;20047;-58
2023/06/22 01:48:35;;;;;;;24.67;10.97;;;;;;;;;;6138717;28;20529;-60
2023/06/22 01:51:35;;;;;;;22.63;10.33;;;;;;;;;;6140028;28;20062;-60
2023/06/22 01:54:37;;;;;;;27.40;10.63;;;;;;;;;;6138528;28;20061;-62
2023/06/22 01:57:38;;;;;;;28.92;11.15;;;;;;;;;;6143642;28;21529;-59
2023/06/22 02:00:44;;;;;;;22.40;10.82;;;;;;;;;;6139567;28;20494;-60
2023/06/22 02:03:50;;;;;;;28.13;11.02;;;;;;;;;;6137010;28;20385;-60
2023/06/22 02:06:56;;;;;;;23.63;10.48;;;;;;;;;;6137092;28;20107;-59
2023/06/22 02:09:58;;;;;;;28.13;11.10;;;;;;;;;;6140279;28;20550;-59
2023/06/22 02:13:00;;;;;;;25.48;11.30;;;;;;;;;;6137855;28;20534;-60
2023/06/22 02:16:01;;;;;;;25.17;10.93;;;;;;;;;;6137834;28;20051;-60
2023/06/22 02:19:03;;;;;;;27.65;11.75;;;;;;;;;;6143701;28;20047;-61
2023/06/22 02:22:03;;;;;;;24.25;10.60;;;;;;;;;;6139968;28;20059;-61
2023/06/22 02:25:04;;;;;;;26.77;11.20;;;;;;;;;;6141120;28;20125;-61
2023/06/22 02:28:05;;;;;;;24.63;10.53;;;;;;;;;;6144286;28;20785;-60
2023/06/22 02:31:06;;;;;;;25.23;11.13;;;;;;;;;;6140676;28;20471;-61
2023/06/22 02:34:06;;;;;;;20.67;11.33;;;;;;;;;;6140957;28;20490;-61
2023/06/22 02:37:07;;;;;;;26.37;11.60;;;;;;;;;;6134933;28;20051;-61
2023/06/22 02:40:08;;;;;;;24.80;10.33;;;;;;;;;;6136478;28;20042;-60
2023/06/22 02:43:09;;;;;;;34.83;11.15;;;;;;;;;;6137095;28;20047;-61
2023/06/22 02:46:10;;;;;;;27.30;10.80;;;;;;;;;;6135848;28;20475;-60
2023/06/22 02:49:11;;;;;;;30.23;11.10;;;;;;;;;;6138216;28;20050;-60
2023/06/22 02:52:11;;;;;;;23.73;10.77;;;;;;;;;;6138487;28;20459;-60
2023/06/22 02:55:12;;;;;;;27.43;10.70;;;;;;;;;;6138093;28;20068;-61
2023/06/22 02:58:12;;;;;;;22.50;10.40;;;;;;;;;;6138411;28;20047;-60
2023/06/22 03:01:13;;;;;;;25.67;10.80;;;;;;;;;;6135708;28;20544;-60
2023/06/22 03:04:15;;;;;;;24.73;10.80;;;;;;;;;;6134355;28;20051;-61
2023/06/22 03:07:17;;;;;;;28.92;11.27;;;;;;;;;;6134636;28;20043;-59
2023/06/22 03:10:18;;;;;;;26.48;11.65;;;;;;;;;;6139014;28;20455;-60
2023/06/22 03:13:18;;;;;;;24.93;10.40;;;;;;;;;;6137039;28;20094;-60
2023/06/22 03:16:19;;;;;;;25.73;10.93;;;;;;;;;;6133430;28;20043;-61
2023/06/22 03:19:21;;;;;;;28.55;11.98;;;;;;;;;;6135703;28;20487;-61
2023/06/22 03:22:21;;;;;;;28.00;12.55;;;;;;;;;;6136554;28;20062;-60
2023/06/22 03:25:22;;;;;;;25.43;11.60;;;;;;;;;;6134629;28;20590;-61
2023/06/22 03:28:23;;;;;;;29.57;12.33;;;;;;;;;;6135258;28;20047;-61
2023/06/22 03:31:24;;;;;;;22.30;11.60;;;;;;;;;;6135073;28;20058;-62
2023/06/22 03:34:24;;;;;;;25.60;12.43;;;;;;;;;;6139306;28;20043;-61
2023/06/22 03:37:26;;;;;;;25.47;12.73;;;;;;;;;;6137023;28;20079;-61
2023/06/22 03:40:26;;;;;;;27.17;13.15;;;;;;;;;;6133474;28;20058;-61
2023/06/22 03:43:27;;;;;;;26.67;12.93;;;;;;;;;;6137455;28;20047;-61
2023/06/22 03:46:27;;;;;;;28.40;12.30;;;;;;;;;;6135292;28;20372;-61
2023/06/22 03:49:28;;;;;;;26.27;12.33;;;;;;;;;;6135602;28;20066;-60
2023/06/22 03:52:29;;;;;;;26.63;13.97;;;;;;;;;;6135907;28;20043;-60
2023/06/22 03:55:30;;;;;;;28.98;13.35;;;;;;;;;;6133649;28;20142;-61
2023/06/22 03:58:32;;;;;;;25.00;14.00;;;;;;;;;;6137659;28;20051;-60
2023/06/22 04:01:33;;;;;;;29.10;14.27;;;;;;;;;;6140296;28;20047;-61
2023/06/22 04:04:35;;;;;;;31.20;13.50;;;;;;;;;;6136490;28;20466;-62
2023/06/22 04:07:38;;;;;;;27.88;12.48;;;;;;;;;;6134436;28;20051;-60
2023/06/22 04:10:39;;;;;;;26.75;12.52;;;;;;;;;;6136600;28;20049;-61
2023/06/22 04:13:39;;;;;;;26.07;12.93;;;;;;;;;;6136072;28;20043;-62
2023/06/22 04:16:40;;;;;;;28.57;13.90;;;;;;;;;;6134723;28;20055;-62
2023/06/22 04:19:41;;;;;;;30.13;13.77;;;;;;;;;;6133168;28;20047;-60
2023/06/22 04:22:41;;;;;;;29.97;12.97;;;;;;;;;;6133785;28;20055;-60
2023/06/22 04:25:42;;;;;;;32.73;13.60;;;;;;;;;;6133159;28;20184;-60
2023/06/22 04:28:42;;;;;;;26.57;13.60;;;;;;;;;;6134552;28;20044;-63
2023/06/22 04:31:43;;;;;;;27.93;13.03;;;;;;;;;;6134948;28;20050;-62
2023/06/22 04:34:43;;;;;;;23.00;13.80;;;;;;;;;;6134400;28;20055;-60
2023/06/22 04:37:48;;;;;;;26.30;12.70;;;;;;;;;;6136079;28;20054;-63
2023/06/22 04:40:49;;;;;;;26.50;14.02;;;;;;;;;;6141212;28;20051;-60
2023/06/22 04:43:53;;;;;;;30.33;14.00;;;;;;;;;;6140194;28;20241;-62
2023/06/22 04:47:03;;;;;;;31.77;15.00;;;;;;;;;;6138710;28;20496;-62
2023/06/22 04:50:05;;;;;;;28.52;14.55;;;;;;;;;;6137910;28;20069;-61
2023/06/22 04:53:07;;;;;;;26.30;14.27;;;;;;;;;;6138309;28;20047;-61
2023/06/22 04:56:08;;;;;;;27.25;14.45;;;;;;;;;;6136643;28;20047;-62
2023/06/22 04:59:12;;;;;;;30.23;14.70;;;;;;;;;;6134381;28;20445;-69
2023/06/22 05:02:13;;;;;;;32.83;15.35;;;;;;;;;;6132473;28;20063;-62
2023/06/22 05:05:14;;;;;;;34.97;15.90;;;;;;;;;;6139908;28;20418;-64
2023/06/22 05:08:16;;;;;;;32.70;16.15;;;;;;;;;;6142768;28;20053;-63
2023/06/22 05:11:16;;;;;;;28.23;15.70;;;;;;;;;;6145123;28;20051;-63
2023/06/22 05:14:18;;;;;;;32.33;17.90;;;;;;;;;;6144785;28;20071;-61
2023/06/22 05:17:19;;;;;;;39.40;20.02;;;;;;;;;;6145739;28;20123;-63
2023/06/22 05:20:21;;;;;;;33.08;18.35;;;;;;;;;;6144997;28;20410;-64
2023/06/22 05:23:22;;;;;;;41.40;23.58;;;;;;;;;;6143098;28;20135;-62
2023/06/22 05:26:24;;;;;;;45.40;26.20;;;;;;;;;;6144377;28;20063;-62
2023/06/22 05:29:24;;;;;;;45.10;25.67;;;;;;;;;;6144626;28;20061;-62
2023/06/22 05:32:25;;;;;;;48.30;26.97;;;;;;;;;;6144961;28;20043;-62
2023/06/22 05:35:25;;;;;;;46.73;26.27;;;;;;;;;;6143741;28;20146;-62
2023/06/22 05:38:26;;;;;;;47.27;27.93;;;;;;;;;;6144593;28;20198;-63
2023/06/22 05:41:27;;;;;;;47.23;27.23;;;;;;;;;;6144457;28;20545;-60
2023/06/22 05:44:27;;;;;;;49.80;27.87;;;;;;;;;;6144640;28;20099;-62
2023/06/22 05:47:28;;;;;;;48.00;27.70;;;;;;;;;;6144317;28;20042;-62
2023/06/22 05:50:28;;;;;;;49.03;27.50;;;;;;;;;;6145961;28;20410;-63
2023/06/22 05:53:29;;;;;;;51.83;30.47;;;;;;;;;;6143726;28;20057;-62
2023/06/22 05:56:30;;;;;;;50.15;30.17;;;;;;;;;;6141680;28;20047;-62
2023/06/22 05:59:30;;;;;;;44.70;28.57;;;;;;;;;;6142630;28;20046;-63
2023/06/22 06:02:31;;;;;;;50.00;30.20;;;;;;;;;;6144528;28;20047;-62
2023/06/22 06:05:33;;;;;;;54.67;32.93;;;;;;;;;;6144481;28;20058;-63
2023/06/22 06:08:34;;;;;;;50.95;31.13;;;;;;;;;;6142784;28;20696;-63
2023/06/22 06:11:34;;;;;;;51.78;31.88;;;;;;;;;;6144297;28;20513;-63
2023/06/22 06:14:35;;;;;;;53.40;33.47;;;;;;;;;;6144214;28;20114;-63
2023/06/22 06:17:44;;;;;;;52.83;32.20;;;;;;;;;;6144896;28;20053;-62
2023/06/22 06:20:45;;;;;;;50.75;32.33;;;;;;;;;;6138355;28;20503;-62
2023/06/22 06:23:47;;;;;;;48.17;30.27;;;;;;;;;;6137996;28;20089;-62
2023/06/22 06:26:48;;;;;;;51.78;32.08;;;;;;;;;;6138608;28;20054;-62
2023/06/22 06:29:48;;;;;;;52.60;31.08;;;;;;;;;;6136150;28;20043;-63
2023/06/22 06:32:49;;;;;;;52.93;33.40;;;;;;;;;;6137294;28;20039;-63
2023/06/22 06:35:50;;;;;;;53.90;32.67;;;;;;;;;;6143423;28;20051;-63
2023/06/22 06:38:50;;;;;;;51.77;32.43;;;;;;;;;;6140392;28;20513;-61
2023/06/22 06:41:51;;;;;;;49.17;30.33;;;;;;;;;;6137400;28;20050;-63
2023/06/22 06:44:52;;;;;;;54.30;33.30;;;;;;;;;;6138016;28;20055;-62
2023/06/22 06:47:52;;;;;;;47.53;30.33;;;;;;;;;;6135283;28;20039;-61
2023/06/22 06:50:53;;;;;;;51.22;31.17;;;;;;;;;;6139151;28;20039;-61
2023/06/22 06:53:53;;;;;;;53.73;31.40;;;;;;;;;;6138752;28;20043;-63
2023/06/22 06:56:54;;;;;;;51.77;32.33;;;;;;;;;;6140903;28;20498;-63
2023/06/22 06:59:56;;;;;;;57.07;31.70;;;;;;;;;;6137041;28;20059;-61
2023/06/22 07:02:56;;;;;;;56.67;33.08;;;;;;;;;;6134519;28;20537;-62
2023/06/22 07:05:57;;;;;;;48.57;30.77;;;;;;;;;;6138203;28;20073;-63
2023/06/22 07:08:58;;;;;;;45.73;28.90;;;;;;;;;;6141042;28;20054;-63
2023/06/22 07:11:58;;;;;;;49.27;31.77;;;;;;;;;;6141420;28;20043;-63
2023/06/22 07:15:04;;;;;;;49.03;32.27;;;;;;;;;;6146329;28;20043;-62
2023/06/22 07:18:04;;;;;;;46.45;30.77;;;;;;;;;;6137808;28;20154;-63
2023/06/22 07:21:06;;;;;;;44.40;29.00;;;;;;;;;;6137259;28;20047;-63
2023/06/22 07:24:07;;;;;;;50.17;30.85;;;;;;;;;;6137190;28;20046;-63
2023/06/22 07:27:11;;;;;;;45.95;29.80;;;;;;;;;;6138593;28;20474;-63
2023/06/22 07:30:12;;;;;;;46.40;28.77;;;;;;;;;;6136865;28;20513;-63
2023/06/22 07:33:12;;;;;;;;;;;;;;;;;;6137967;28;20475;-62
2023/06/22 07:36:13;;;;;;;44.13;27.20;;;;;;;;;;6135810;28;19929;-63
2023/06/22 07:39:14;;;;;;;35.67;23.15;;;;;;;;;;6136954;28;20098;-62
2023/06/22 07:42:18;;;;;;;35.83;22.95;;;;;;;;;;6138449;28;20068;-61
2023/06/22 07:45:19;;;;;;;35.50;22.73;;;;;;;;;;6136419;28;20058;-63
2023/06/22 07:48:21;;;;;;;38.63;21.97;;;;;;;;;;6136502;28;20039;-60
2023/06/22 07:51:22;;;;;;;33.33;21.80;;;;;;;;;;6138712;28;20047;-61
2023/06/22 07:54:22;;;;;;;36.13;22.70;;;;;;;;;;6137774;28;20090;-62
2023/06/22 07:57:23;;;;;;;39.00;22.87;;;;;;;;;;6135577;28;20079;-62
2023/06/22 08:00:24;;;;;;;32.77;22.20;;;;;;;;;;6134475;28;20043;-60
2023/06/22 08:03:24;;;;;;;30.70;20.83;;;;;;;;;;6137246;28;20047;-61
2023/06/22 08:06:25;;;;;;;30.57;19.87;;;;;;;;;;6137573;28;20411;-62
2023/06/22 08:09:28;;;;;;;28.17;19.57;;;;;;;;;;6134766;28;20039;-61
2023/06/22 08:12:29;;;;;;;29.80;20.40;;;;;;;;;;6139692;28;20124;-63
2023/06/22 08:15:29;;;;;;;30.90;19.88;;;;;;;;;;6142353;28;20044;-62
2023/06/22 08:18:30;;;;;;;26.07;18.07;;;;;;;;;;6140293;28;20051;-63
2023/06/22 08:21:30;;;;;;;25.47;17.60;;;;;;;;;;6140152;28;20094;-63
2023/06/22 08:24:31;;;;;;;25.50;16.00;;;;;;;;;;6143009;28;20506;-62
2023/06/22 08:27:32;;;;;;;25.93;17.20;;;;;;;;;;6138620;28;20413;-62
2023/06/22 08:30:32;;;;;;;23.73;16.13;;;;;;;;;;6139844;28;20051;-62
2023/06/22 08:33:33;;;;;;;22.37;15.70;;;;;;;;;;6139340;28;20168;-59
2023/06/22 08:36:37;;;;;;;22.10;14.90;;;;;;;;;;6140418;28;20074;-63
2023/06/22 08:39:38;;;;;;;26.23;15.55;;;;;;;;;;6139170;28;20532;-62
2023/06/22 08:42:42;;;;;;;22.25;15.45;;;;;;;;;;6143127;28;20055;-61
2023/06/22 08:45:43;;;;;;;21.95;15.63;;;;;;;;;;6140151;28;20079;-62
2023/06/22 08:48:43;;;;;;;22.30;15.17;;;;;;;;;;6139180;28;20051;-62
2023/06/22 08:51:45;;;;;;;29.85;17.98;;;;;;;;;;6141027;28;20043;-62
2023/06/22 08:54:49;;;;;;;25.98;16.95;;;;;;;;;;6140590;28;20047;-62
2023/06/22 08:57:50;;;;;;;26.75;17.30;;;;;;;;;;6130256;28;20077;-61
2023/06/22 09:00:51;;;;;;;;;;;;;;;;;;6136044;28;20462;-61
2023/06/22 09:03:55;;;;;;;25.58;17.13;;;;;;;;;;6134042;28;19922;-62
2023/06/22 09:06:56;;;;;;;25.08;16.33;;;;;;;;;;6130473;28;20054;-62
2023/06/22 09:09:56;;;;;;;23.57;16.63;;;;;;;;;;6131682;28;20051;-63
2023/06/22 09:12:57;;;;;;;25.20;16.23;;;;;;;;;;6131932;28;20906;-61
2023/06/22 09:15:58;;;;;;;26.27;15.67;;;;;;;;;;6131725;28;20051;-62
2023/06/22 09:18:58;;;;;;;26.57;16.30;;;;;;;;;;6128133;28;20309;-62
2023/06/22 09:22:00;;;;;;;23.80;15.85;;;;;;;;;;6133733;28;20470;-62
2023/06/22 09:25:00;;;;;;;23.80;15.90;;;;;;;;;;6132638;28;20054;-61
2023/06/22 09:28:03;;;;;;;24.27;15.05;;;;;;;;;;6130986;28;20050;-62
2023/06/22 09:31:04;;;;;;;24.17;15.37;;;;;;;;;;6129959;28;20604;-62
2023/06/22 09:34:05;;;;;;;22.08;15.10;;;;;;;;;;6129791;28;20507;-60
2023/06/22 09:37:05;;;;;;;21.97;15.13;;;;;;;;;;6128931;28;20062;-62
2023/06/22 09:40:10;;;;;;;24.73;14.38;;;;;;;;;;6132395;28;20127;-63
2023/06/22 09:43:11;;;;;;;23.58;15.38;;;;;;;;;;6133474;28;20489;-62
2023/06/22 09:46:12;;;;;;;23.77;15.50;;;;;;;;;;6131405;28;20051;-62
2023/06/22 09:49:12;;;;;;;21.53;14.70;;;;;;;;;;6126617;28;20062;-62
2023/06/22 09:52:13;;;;;;;22.87;14.83;;;;;;;;;;6129635;28;20142;-61
2023/06/22 09:55:15;;;;;;;24.10;14.80;;;;;;;;;;6130389;28;20328;-62
2023/06/22 09:58:16;;;;;;;22.27;15.05;;;;;;;;;;6128265;28;20424;-62
2023/06/22 10:01:17;;;;;;;25.53;15.63;;;;;;;;;;6131360;28;20055;-61
2023/06/22 10:04:18;;;;;;;22.05;15.30;;;;;;;;;;6132251;28;20054;-62
2023/06/22 10:07:18;;;;;;;26.97;14.93;;;;;;;;;;6130321;28;20047;-62
2023/06/22 10:10:19;;;;;;;25.27;14.88;;;;;;;;;;6129341;28;20051;-60
2023/06/22 10:13:20;;;;;;;23.63;14.30;;;;;;;;;;6130648;28;20051;-62
2023/06/22 10:16:20;;;;;;;25.67;15.52;;;;;;;;;;6128253;28;20047;-60
2023/06/22 10:19:21;;;;;;;24.73;16.37;;;;;;;;;;6128653;28;20047;-61
2023/06/22 10:22:21;;;;;;;25.00;16.33;;;;;;;;;;6130331;28;21187;-62
2023/06/22 10:25:22;;;;;;;24.03;16.37;;;;;;;;;;6130570;28;20483;-61
2023/06/22 10:28:23;;;;;;;24.48;15.48;;;;;;;;;;6128608;28;20047;-61
2023/06/22 10:31:23;;;;;;;24.77;15.70;;;;;;;;;;6130083;28;20054;-62
2023/06/22 10:34:24;;;;;;;27.80;16.33;;;;;;;;;;6128401;28;20138;-60
2023/06/22 10:37:24;;;;;;;24.43;15.43;;;;;;;;;;6130757;28;20047;-62
2023/06/22 10:40:25;;;;;;;25.75;16.73;;;;;;;;;;6131049;28;20915;-61
2023/06/22 10:43:26;;;;;;;25.38;15.82;;;;;;;;;;6128289;28;20162;-62
2023/06/22 10:46:27;;;;;;;28.70;16.77;;;;;;;;;;6129710;28;20190;-63
2023/06/22 10:49:28;;;;;;;22.50;15.43;;;;;;;;;;6128784;28;20058;-63
2023/06/22 10:52:28;;;;;;;26.70;16.17;;;;;;;;;;6130615;28;20082;-62
2023/06/22 10:55:29;;;;;;;24.30;16.97;;;;;;;;;;6130245;28;20047;-62
2023/06/22 10:58:29;;;;;;;24.00;15.82;;;;;;;;;;6126937;28;20113;-62
2023/06/22 11:01:31;;;;;;;28.50;15.57;;;;;;;;;;6131009;28;20055;-62
2023/06/22 11:04:32;;;;;;;23.63;16.10;;;;;;;;;;6130912;28;20059;-63
2023/06/22 11:07:33;;;;;;;21.40;15.07;;;;;;;;;;6128166;28;20046;-63
2023/06/22 11:10:34;;;;;;;25.45;16.92;;;;;;;;;;6134152;28;20169;-62
2023/06/22 11:13:34;;;;;;;27.13;17.10;;;;;;;;;;6136056;28;20043;-63
2023/06/22 11:16:35;;;;;;;24.58;17.02;;;;;;;;;;6136476;28;20066;-62
2023/06/22 11:19:36;;;;;;;28.07;18.00;;;;;;;;;;6134518;28;20047;-63
2023/06/22 11:22:41;;;;;;;26.27;17.10;;;;;;;;;;6136476;28;20069;-62
2023/06/22 11:25:42;;;;;;;23.25;15.63;;;;;;;;;;6136019;28;20053;-63
2023/06/22 11:28:43;;;;;;;23.65;16.05;;;;;;;;;;6137298;28;20058;-62
2023/06/22 11:31:43;;;;;;;27.77;16.87;;;;;;;;;;6139424;28;20048;-62
2023/06/22 11:34:44;;;;;;;27.27;17.05;;;;;;;;;;6136890;28;20135;-61
2023/06/22 11:37:44;;;;;;;23.63;15.57;;;;;;;;;;6136078;28;20047;-63
2023/06/22 11:40:45;;;;;;;27.10;16.17;;;;;;;;;;6134474;28;20043;-61
2023/06/22 11:43:46;;;;;;;24.75;16.05;;;;;;;;;;6135579;28;20059;-62
2023/06/22 11:46:47;;;;;;;23.08;15.63;;;;;;;;;;6137376;28;20062;-62
2023/06/22 11:49:47;;;;;;;;;;;;;;;;;;6138361;28;20047;-62
2023/06/22 11:52:48;;;;;;;24.40;15.23;;;;;;;;;;6137101;28;20310;-63
2023/06/22 11:55:49;;;;;;;23.80;15.63;;;;;;;;;;6135352;28;20043;-62
2023/06/22 11:58:49;;;;;;;24.60;16.20;;;;;;;;;;6138153;28;20433;-62
2023/06/22 12:01:52;;;;;;;25.47;16.37;;;;;;;;;;6139571;28;20043;-64
2023/06/22 12:04:56;;;;;;;24.55;15.20;;;;;;;;;;6137530;28;20450;-63
2023/06/22 12:07:56;;;;;;;24.85;15.63;;;;;;;;;;6136384;28;20404;-64
2023/06/22 12:10:57;;;;;;;23.55;15.85;;;;;;;;;;6136104;28;20047;-61
2023/06/22 12:14:02;;;;;;;25.97;16.47;;;;;;;;;;6137934;28;20044;-63
2023/06/22 12:17:03;;;;;;;26.85;16.30;;;;;;;;;;6136570;28;20049;-61
2023/06/22 12:20:05;;;;;;;27.00;16.75;;;;;;;;;;6137042;28;20503;-63
2023/06/22 12:23:06;;;;;;;30.23;17.60;;;;;;;;;;6138347;28;20197;-63
2023/06/22 12:26:06;;;;;;;33.13;18.05;;;;;;;;;;6137442;28;20155;-63
2023/06/22 12:29:07;;;;;;;27.75;17.88;;;;;;;;;;6136677;28;20079;-63
2023/06/22 12:32:07;;;;;;;28.83;17.53;;;;;;;;;;6138021;28;20091;-62
2023/06/22 12:35:13;;;;;;;27.20;17.42;;;;;;;;;;6137994;28;20051;-62
2023/06/22 12:38:14;;;;;;;22.65;16.38;;;;;;;;;;6136277;28;20125;-64
2023/06/22 12:41:14;;;;;;;29.88;18.25;;;;;;;;;;6134826;28;20051;-64
2023/06/22 12:44:15;;;;;;;26.42;18.05;;;;;;;;;;6136723;28;20055;-63
2023/06/22 12:47:16;;;;;;;30.92;18.30;;;;;;;;;;6137310;28;20047;-63
2023/06/22 12:50:16;;;;;;;25.90;17.85;;;;;;;;;;6133453;28;20091;-62
2023/06/22 12:53:17;;;;;;;26.55;18.70;;;;;;;;;;6136401;28;20055;-62
2023/06/22 12:56:17;;;;;;;29.02;17.52;;;;;;;;;;6138057;28;20043;-63
2023/06/22 12:59:18;;;;;;;27.45;18.02;;;;;;;;;;6139233;28;20198;-63
2023/06/22 13:02:19;;;;;;;27.27;18.60;;;;;;;;;;6141781;28;20051;-63
2023/06/22 13:05:19;;;;;;;;;;;;;;;;;;6142433;28;20521;-63
2023/06/22 13:08:20;;;;;;;28.37;18.13;;;;;;;;;;6141365;28;19938;-64
2023/06/22 13:11:21;;;;;;;27.70;18.98;;;;;;;;;;6139152;28;20051;-63
2023/06/22 13:14:21;;;;;;;27.92;18.05;;;;;;;;;;6140341;28;20051;-62
2023/06/22 13:17:22;;;;;;;30.48;18.58;;;;;;;;;;6140204;28;20039;-63
2023/06/22 13:20:22;;;;;;;27.77;17.55;;;;;;;;;;6137478;28;20071;-62
2023/06/22 13:23:23;;;;;;;;;;;;;;;;;;6141326;28;20054;-62
2023/06/22 13:26:24;;;;;;;26.30;17.47;;;;;;;;;;6140838;28;20404;-61
2023/06/22 13:29:25;;;;;;;36.40;19.05;;;;;;;;;;6138049;28;20055;-64
2023/06/22 13:32:25;;;;;;;;;;;;;;;;;;6141011;28;20055;-62
2023/06/22 13:35:26;;;;;;;29.38;18.42;;;;;;;;;;6141529;28;20297;-63
2023/06/22 13:38:26;;;;;;;;;;;;;;;;;;6141337;28;20039;-63
2023/06/22 13:41:27;;;;;;;30.73;18.60;;;;;;;;;;6138319;28;20441;-63
2023/06/22 13:44:28;;;;;;;;;;;;;;;;;;6138791;28;20058;-63
2023/06/22 13:47:30;;;;;;;35.88;18.73;;;;;;;;;;6138238;28;20010;-62
2023/06/22 13:50:30;;;;;;;26.98;17.95;;;;;;;;;;6137831;28;20043;-63
2023/06/22 13:53:31;;;;;;;;;;;;;;;;;;6137217;28;20047;-62
2023/06/22 13:56:32;;;;;;;29.07;18.60;;;;;;;;;;6139764;28;19926;-62
2023/06/22 13:59:33;;;;;;;30.52;18.55;;;;;;;;;;6140472;28;20051;-63
2023/06/22 14:02:33;;;;;;;;;;;;;;;;;;6141146;28;20046;-62
2023/06/22 14:05:34;;;;;;;25.00;18.10;;;;;;;;;;6142289;28;19938;-63
2023/06/22 14:08:36;;;;;;;;;;;;;;;;;;6139411;28;20051;-63
2023/06/22 14:11:37;;;;;;;30.45;19.15;;;;;;;;;;6140678;28;19926;-63
2023/06/22 14:14:37;;;;;;;;;;;;;;;;;;6143597;28;20055;-63
2023/06/22 14:17:38;;;;;;;27.58;18.45;;;;;;;;;;6139360;28;20293;-63
2023/06/22 14:20:39;;;;;;;;;;;;;;;;;;6143038;28;20059;-61
2023/06/22 14:23:40;;;;;;;28.30;19.52;;;;;;;;;;6139335;28;19926;-63
2023/06/22 14:26:41;;;;;;;;;;;;;;;;;;6140678;28;20418;-64
2023/06/22 14:29:42;;;;;;;28.73;18.73;;;;;;;;;;6138040;28;20044;-63
2023/06/22 14:32:43;;;;;;;;;;;;;;;;;;6152260;28;20435;-63
2023/06/22 14:35:44;;;;;;;26.00;19.48;;;;;;;;;;6136970;28;19929;-63
2023/06/22 14:38:44;;;;;;;;;;;;;;;;;;6138642;28;20549;-63
2023/06/22 14:41:45;;;;;;;31.53;20.47;;;;;;;;;;6140332;28;19975;-62
2023/06/22 14:44:45;;;;;;;;;;;;;;;;;;6139975;28;20052;-62
2023/06/22 14:47:46;;;;;;;28.27;19.33;;;;;;;;;;6140241;28;19926;-63
2023/06/22 14:50:46;;;;;;;;;;;;;;;;;;6135730;28;20043;-63
2023/06/22 14:53:47;;;;;;;28.63;19.93;;;;;;;;;;6140982;28;19946;-63
2023/06/22 14:56:48;;;;;;;;;;;;;;;;;;6140188;28;20047;-63
2023/06/22 14:59:51;;;;;;;31.42;20.20;;;;;;;;;;6140053;28;20397;-64
2023/06/22 15:02:52;;;;;;;30.63;20.60;;;;;;;;;;6138438;28;20054;-62
2023/06/22 15:05:53;;;;;;;30.33;20.15;;;;;;;;;;6138725;28;20035;-64
2023/06/22 15:08:53;;;;;;;;;;;;;;;;;;6138785;28;20047;-63
2023/06/22 15:11:54;;;;;;;32.00;20.25;;;;;;;;;;6137651;28;19981;-63
2023/06/22 15:14:55;;;;;;;;;;;;;;;;;;6138629;28;20098;-64
2023/06/22 15:17:55;;;;;;;28.83;19.33;;;;;;;;;;6137895;28;19922;-63
2023/06/22 15:20:56;;;;;;;32.75;19.67;;;;;;;;;;6140043;28;20047;-63
2023/06/22 15:23:56;;;;;;;;;;;;;;;;;;6136988;28;20081;-64
2023/06/22 15:26:57;;;;;;;29.13;20.17;;;;;;;;;;6138398;28;20330;-64
2023/06/22 15:29:57;;;;;;;27.58;20.65;;;;;;;;;;6135939;28;20047;-60
2023/06/22 15:32:58;;;;;;;35.50;21.17;;;;;;;;;;6137539;28;20051;-62
2023/06/22 15:36:03;;;;;;;;;;;;;;;;;;6142125;28;20051;-63
2023/06/22 15:39:04;;;;;;;30.33;20.02;;;;;;;;;;6138740;28;19926;-65
2023/06/22 15:42:04;;;;;;;32.60;21.20;;;;;;;;;;6136298;28;20422;-63
2023/06/22 15:45:05;;;;;;;;;;;;;;;;;;6134266;28;20048;-61
2023/06/22 15:48:06;;;;;;;33.28;20.92;;;;;;;;;;6144095;29;19939;-62
2023/06/22 15:51:07;;;;;;;32.55;21.40;;;;;;;;;;6142980;28;20055;-60
2023/06/22 15:54:07;;;;;;;41.28;21.77;;;;;;;;;;6145187;28;20061;-62
2023/06/22 15:57:08;;;;;;;;;;;;;;;;;;6146105;28;20105;-63
2023/06/22 16:00:13;;;;;;;32.87;20.73;;;;;;;;;;6143203;28;20028;-61
2023/06/22 16:03:14;;;;;;;37.30;21.33;;;;;;;;;;6142177;28;20043;-60
2023/06/22 16:06:15;;;;;;;34.53;21.23;;;;;;;;;;6139717;29;20043;-62
2023/06/22 16:09:16;;;;;;;30.65;20.98;;;;;;;;;;6144469;28;20454;-60
2023/06/22 16:12:17;;;;;;;34.72;22.10;;;;;;;;;;6144176;28;20497;-63
2023/06/22 16:15:17;;;;;;;35.05;22.20;;;;;;;;;;6143907;28;20051;-61
2023/06/22 16:18:18;;;;;;;34.88;21.27;;;;;;;;;;6136396;28;20187;-60
2023/06/22 16:21:18;;;;;;;32.15;21.38;;;;;;;;;;6142935;28;20050;-60
2023/06/22 16:24:19;;;;;;;;;;;;;;;;;;6144176;28;20047;-61
2023/06/22 16:27:19;;;;;;;33.17;22.43;;;;;;;;;;6145212;28;19933;-62
2023/06/22 16:30:20;;;;;;;;;;;;;;;;;;6137053;28;20044;-65
2023/06/22 16:33:20;;;;;;;36.83;21.27;;;;;;;;;;6127852;28;19930;-62
2023/06/22 16:36:21;;;;;;;;;;;;;;;;;;6139750;28;20055;-65
2023/06/22 16:39:22;;;;;;;34.60;21.73;;;;;;;;;;6138193;28;20413;-63
2023/06/22 16:42:22;;;;;;;;;;;;;;;;;;6139358;29;20071;-62
2023/06/22 16:45:23;;;;;;;33.17;21.63;;;;;;;;;;6139670;28;20387;-57
2023/06/22 16:48:24;;;;;;;30.48;20.85;;;;;;;;;;6138359;28;20422;-63
2023/06/22 16:51:24;;;;;;;;;;;;;;;;;;6138322;28;20491;-61
2023/06/22 16:54:25;;;;;;;33.63;21.50;;;;;;;;;;6139697;28;19927;-60
2023/06/22 16:57:25;;;;;;;31.90;21.67;;;;;;;;;;6138145;28;20059;-60
2023/06/22 17:00:26;;;;;;;34.05;21.58;;;;;;;;;;6136501;28;20546;-62
2023/06/22 17:03:29;;;;;;;31.73;21.08;;;;;;;;;;6131118;28;20062;-62
2023/06/22 17:06:31;;;;;;;33.13;21.00;;;;;;;;;;6137176;28;20049;-62
2023/06/22 17:09:32;;;;;;;31.70;20.42;;;;;;;;;;6136829;28;20452;-62
2023/06/22 17:12:33;;;;;;;30.42;20.25;;;;;;;;;;6135377;28;20047;-60
2023/06/22 17:15:35;;;;;;;34.65;21.17;;;;;;;;;;6136666;28;20054;-61
2023/06/22 17:18:36;;;;;;;34.05;20.65;;;;;;;;;;6136712;28;20047;-63
2023/06/22 17:21:37;;;;;;;35.40;20.63;;;;;;;;;;6133242;28;20159;-61
2023/06/22 17:24:40;;;;;;;29.02;19.23;;;;;;;;;;6137005;28;20170;-60
2023/06/22 17:27:40;;;;;;;27.60;18.33;;;;;;;;;;6135515;28;20540;-61
2023/06/22 17:30:41;;;;;;;26.77;18.88;;;;;;;;;;6134967;28;20098;-62
2023/06/22 17:33:42;;;;;;;;;;;;;;;;;;6136100;28;20627;-63
2023/06/22 17:36:44;;;;;;;29.60;19.33;;;;;;;;;;6135122;28;20056;-63
2023/06/22 17:39:51;;;;;;;29.05;18.52;;;;;;;;;;6129825;28;20059;-63
2023/06/22 17:43:06;;;;;;;31.00;20.42;;;;;;;;;;6132925;28;20043;-62
2023/06/22 17:46:07;;;;;;;28.00;18.83;;;;;;;;;;6134720;28;20043;-59
2023/06/22 17:49:08;;;;;;;;;;;;;;;;;;6135407;28;20146;-61
2023/06/22 17:52:16;;;;;;;;;;;;;;;;;;6131595;28;19937;-60